createdAt,value
2017-08-01T00:00:12.960Z,92.58
2017-08-01T00:00:53.210Z,92.77
2017-08-01T00:01:33.658Z,92.86
2017-08-01T00:02:14.113Z,92.48
2017-08-01T00:02:54.616Z,93.06
2017-08-01T00:03:35.216Z,92.86
2017-08-01T00:04:15.643Z,92.96
2017-08-01T00:04:56.086Z,93.44
2017-08-01T00:05:36.466Z,93.35
2017-08-01T00:06:16.945Z,93.06
2017-08-01T00:06:57.295Z,93.35
2017-08-01T00:07:38.394Z,92.58
2017-08-01T00:08:18.339Z,93.25
2017-08-01T00:08:58.803Z,92.77
2017-08-01T00:09:39.419Z,93.25
2017-08-01T00:10:19.713Z,93.54
2017-08-01T00:11:00.122Z,93.25
2017-08-01T00:11:40.475Z,93.63
2017-08-01T00:12:20.894Z,93.44
2017-08-01T00:13:01.327Z,93.63
2017-08-01T00:13:41.699Z,93.92
2017-08-01T00:14:22.137Z,93.73
2017-08-01T00:15:02.615Z,94.12
2017-08-01T00:15:43.054Z,94.31
2017-08-01T00:16:23.527Z,93.92
2017-08-01T00:17:03.981Z,93.92
2017-08-01T00:17:44.504Z,94.12
2017-08-01T00:18:25.019Z,94.79
2017-08-01T00:19:05.442Z,95.17
2017-08-01T00:19:45.858Z,94.49
2017-08-01T00:20:26.544Z,94.69
2017-08-01T00:21:07.372Z,94.69
2017-08-01T00:21:47.664Z,95.17
2017-08-01T00:22:28.069Z,94.98
2017-08-01T00:23:08.434Z,94.98
2017-08-01T00:23:49.155Z,94.98
2017-08-01T00:24:29.604Z,94.88
2017-08-01T00:25:10.034Z,94.69
2017-08-01T00:25:50.400Z,95.26
2017-08-01T00:26:30.846Z,95.36
2017-08-01T00:27:11.333Z,95.07
2017-08-01T00:27:51.814Z,95.07
2017-08-01T00:28:32.260Z,95.17
2017-08-01T00:29:12.777Z,95.07
2017-08-01T00:29:53.085Z,95.65
2017-08-01T00:30:33.574Z,95.55
2017-08-01T00:31:14.003Z,95.75
2017-08-01T00:31:54.466Z,96.22
2017-08-01T00:32:34.816Z,96.42
2017-08-01T00:33:15.520Z,96.42
2017-08-01T00:33:55.848Z,96.42
2017-08-01T00:34:36.305Z,96.13
2017-08-01T00:35:16.710Z,96.89
2017-08-01T00:35:57.107Z,97.09
2017-08-01T00:36:38.297Z,96.7
2017-08-01T00:37:20.763Z,96.32
2017-08-01T00:39:26.083Z,94.49
2017-08-01T00:40:05.871Z,95.17
2017-08-01T00:40:46.267Z,95.12
2017-08-01T00:41:26.678Z,94.83
2017-08-01T00:42:07.107Z,94.83
2017-08-01T00:42:47.526Z,95.21
2017-08-01T00:43:27.906Z,94.83
2017-08-01T00:44:08.321Z,94.16
2017-08-01T00:44:48.663Z,93.1
2017-08-01T00:45:29.098Z,92.53
2017-08-01T00:46:09.563Z,91.76
2017-08-01T00:46:50.078Z,91.47
2017-08-01T00:47:30.509Z,90.9
2017-08-01T00:48:10.900Z,90.66
2017-08-01T00:48:51.342Z,90.66
2017-08-01T00:49:31.738Z,90.27
2017-08-01T00:50:12.187Z,89.89
2017-08-01T00:50:52.522Z,89.4
2017-08-01T00:51:32.973Z,89.79
2017-08-01T00:52:13.319Z,89.4
2017-08-01T00:52:53.768Z,89.22
2017-08-01T00:53:34.205Z,88.25
2017-08-01T00:54:14.576Z,88.25
2017-08-01T00:54:54.981Z,87.87
2017-08-01T00:55:35.429Z,87.39
2017-08-01T00:56:15.842Z,87.87
2017-08-01T00:56:56.325Z,88.54
2017-08-01T00:57:36.604Z,87.77
2017-08-01T00:58:17.022Z,87.05
2017-08-01T00:58:57.447Z,86.85
2017-08-01T00:59:37.880Z,87.53
2017-08-01T01:00:18.304Z,87.34
2017-08-01T01:00:58.726Z,86.38
2017-08-01T01:01:39.163Z,87.34
2017-08-01T01:02:19.563Z,87.43
2017-08-01T01:02:59.968Z,86.09
2017-08-01T01:03:40.435Z,86.28
2017-08-01T01:04:20.867Z,87.05
2017-08-01T01:06:20.650Z,86.38
2017-08-01T01:07:00.974Z,86.95
2017-08-01T01:07:41.320Z,87.05
2017-08-01T01:08:21.749Z,86.52
2017-08-01T01:09:02.158Z,87.19
2017-08-01T01:09:42.533Z,87.87
2017-08-01T01:10:22.972Z,87.01
2017-08-01T01:11:03.459Z,87.19
2017-08-01T01:11:43.831Z,86.62
2017-08-01T01:12:24.199Z,87.77
2017-08-01T01:13:04.598Z,86.81
2017-08-01T01:13:45.011Z,87.29
2017-08-01T01:14:25.448Z,87.01
2017-08-01T01:15:05.849Z,87.58
2017-08-01T01:15:46.205Z,87.49
2017-08-01T01:16:26.645Z,87.39
2017-08-01T01:17:07.012Z,87.19
2017-08-01T01:17:47.427Z,87.19
2017-08-01T01:18:27.837Z,86.72
2017-08-01T01:19:08.188Z,86.24
2017-08-01T01:19:48.621Z,85.85
2017-08-01T01:20:29.108Z,85.8
2017-08-01T01:21:09.503Z,85.89
2017-08-01T01:21:49.948Z,85.61
2017-08-01T01:22:30.288Z,85.37
2017-08-01T01:23:10.744Z,84.74
2017-08-01T01:23:51.125Z,85.61
2017-08-01T01:24:31.548Z,85.71
2017-08-01T01:25:12.141Z,86.24
2017-08-01T01:25:52.557Z,87.19
2017-08-01T01:26:33.056Z,87.39
2017-08-01T01:27:13.363Z,87.39
2017-08-01T01:27:53.944Z,88.06
2017-08-01T01:28:34.358Z,88.25
2017-08-01T01:29:14.855Z,88.06
2017-08-01T01:29:55.216Z,88.35
2017-08-01T01:30:35.701Z,88.54
2017-08-01T01:31:16.154Z,89.12
2017-08-01T01:31:56.784Z,88.93
2017-08-01T01:32:37.190Z,88.06
2017-08-01T01:33:17.640Z,88.83
2017-08-01T01:33:58.017Z,88.54
2017-08-01T01:34:38.414Z,88.31
2017-08-01T01:35:18.912Z,87.68
2017-08-01T01:35:59.288Z,87.87
2017-08-01T01:36:39.720Z,88.16
2017-08-01T01:37:20.134Z,87.87
2017-08-01T01:38:00.527Z,87.96
2017-08-01T01:38:41.020Z,88.06
2017-08-01T01:39:21.428Z,87.77
2017-08-01T01:40:01.852Z,87.77
2017-08-01T01:40:42.268Z,87.49
2017-08-01T01:41:22.624Z,87.68
2017-08-01T01:42:03.045Z,87.58
2017-08-01T01:42:43.391Z,87.01
2017-08-01T01:43:23.828Z,86.33
2017-08-01T01:44:04.243Z,85.75
2017-08-01T01:44:44.614Z,85.75
2017-08-01T01:45:25.015Z,85.85
2017-08-01T01:46:05.412Z,85.85
2017-08-01T01:46:45.837Z,85.57
2017-08-01T01:47:26.176Z,86.43
2017-08-01T01:49:23.624Z,86.14
2017-08-01T01:50:04.036Z,87.39
2017-08-01T01:50:44.407Z,86.91
2017-08-01T01:51:24.821Z,86.81
2017-08-01T01:52:05.234Z,88.06
2017-08-01T01:52:45.646Z,88.06
2017-08-01T01:53:26.058Z,88.06
2017-08-01T01:54:06.495Z,87.87
2017-08-01T01:54:46.858Z,87.77
2017-08-01T01:55:27.269Z,88.02
2017-08-01T01:56:07.615Z,87.87
2017-08-01T01:56:48.001Z,87.68
2017-08-01T01:57:28.462Z,88.16
2017-08-01T01:58:08.897Z,87.73
2017-08-01T01:58:49.298Z,88.06
2017-08-01T01:59:29.755Z,87.39
2017-08-01T02:00:10.124Z,88.35
2017-08-01T02:00:50.495Z,87.68
2017-08-01T02:01:30.981Z,88.06
2017-08-01T02:02:11.394Z,87.25
2017-08-01T02:02:51.861Z,87.92
2017-08-01T02:03:32.202Z,87.05
2017-08-01T02:04:12.599Z,87.1
2017-08-01T02:04:53.007Z,87.15
2017-08-01T02:05:33.461Z,87.15
2017-08-01T02:06:13.980Z,87.82
2017-08-01T02:06:54.437Z,88.06
2017-08-01T02:07:34.873Z,88.02
2017-08-01T02:08:15.226Z,88.02
2017-08-01T02:10:08.148Z,89.17
2017-08-01T02:10:52.778Z,89.36
2017-08-01T02:11:32.736Z,89.65
2017-08-01T02:12:13.136Z,90.13
2017-08-01T02:12:53.555Z,90.52
2017-08-01T02:13:33.991Z,90.22
2017-08-01T02:14:14.480Z,90.03
2017-08-01T02:14:54.822Z,89.99
2017-08-01T02:15:35.331Z,90.42
2017-08-01T02:16:15.715Z,90.8
2017-08-01T02:16:56.147Z,90.85
2017-08-01T02:17:36.548Z,91.09
2017-08-01T02:18:16.958Z,91.24
2017-08-01T02:18:57.388Z,91.52
2017-08-01T02:19:37.729Z,91.42
2017-08-01T02:20:18.198Z,91.47
2017-08-01T02:20:58.655Z,91.81
2017-08-01T02:21:39.088Z,91.91
2017-08-01T02:22:19.548Z,91.52
2017-08-01T02:22:59.961Z,91.42
2017-08-01T02:23:40.341Z,91.33
2017-08-01T02:24:20.782Z,91.52
2017-08-01T02:25:01.192Z,91.52
2017-08-01T02:25:41.659Z,91.62
2017-08-01T02:26:22.100Z,91.72
2017-08-01T02:27:02.430Z,91.24
2017-08-01T02:27:42.808Z,92.1
2017-08-01T02:28:23.226Z,91.72
2017-08-01T02:29:03.686Z,91.72
2017-08-01T02:29:44.129Z,91.91
2017-08-01T02:31:37.258Z,90.75
2017-08-01T02:32:17.742Z,90.66
2017-08-01T02:32:58.270Z,90.56
2017-08-01T02:33:38.642Z,91.05
2017-08-01T02:34:19.027Z,90.9
2017-08-01T02:34:59.479Z,90.95
2017-08-01T02:35:39.911Z,91.47
2017-08-01T02:36:20.302Z,91.19
2017-08-01T02:37:00.778Z,91.14
2017-08-01T02:37:41.200Z,91.66
2017-08-01T02:38:21.641Z,91.96
2017-08-01T02:39:01.966Z,91.33
2017-08-01T02:39:42.394Z,91.57
2017-08-01T02:40:22.818Z,91.91
2017-08-01T02:41:03.338Z,92
2017-08-01T02:41:43.718Z,91.96
2017-08-01T02:42:24.053Z,92.77
2017-08-01T02:43:04.491Z,92.33
2017-08-01T02:43:44.952Z,92.63
2017-08-01T02:44:25.321Z,92.86
2017-08-01T02:45:05.747Z,92
2017-08-01T02:45:46.287Z,91.38
2017-08-01T02:46:26.696Z,90.37
2017-08-01T02:47:07.101Z,90.13
2017-08-01T02:47:47.760Z,89.07
2017-08-01T02:48:28.290Z,89.36
2017-08-01T02:49:08.663Z,88.98
2017-08-01T02:49:49.025Z,88.69
2017-08-01T02:50:29.491Z,88.69
2017-08-01T02:51:09.990Z,89.36
2017-08-01T02:51:50.357Z,89.07
2017-08-01T02:52:30.727Z,89.26
2017-08-01T02:53:11.316Z,89.36
2017-08-01T02:53:51.768Z,89.75
2017-08-01T02:54:32.231Z,89.26
2017-08-01T02:55:12.590Z,89.75
2017-08-01T02:55:53.022Z,90.52
2017-08-01T02:56:33.512Z,90.42
2017-08-01T02:57:13.909Z,90.52
2017-08-01T02:57:54.277Z,90.42
2017-08-01T02:58:34.653Z,90.99
2017-08-01T02:59:15.176Z,91.66
2017-08-01T02:59:55.628Z,90.8
2017-08-01T03:00:35.970Z,90.99
2017-08-01T03:01:16.373Z,91.28
2017-08-01T03:01:56.774Z,91.47
2017-08-01T03:02:37.182Z,91.96
2017-08-01T03:03:18.382Z,91.38
2017-08-01T03:03:58.812Z,91.19
2017-08-01T03:04:39.178Z,91.09
2017-08-01T03:05:20.748Z,90.22
2017-08-01T03:06:01.179Z,90.99
2017-08-01T03:06:41.538Z,90.32
2017-08-01T03:07:21.971Z,89.84
2017-08-01T03:08:02.348Z,89.65
2017-08-01T03:08:43.095Z,89.84
2017-08-01T03:09:23.365Z,90.32
2017-08-01T03:10:03.792Z,90.03
2017-08-01T03:10:44.310Z,89.36
2017-08-01T03:11:24.772Z,89.65
2017-08-01T03:12:05.219Z,89.07
2017-08-01T03:12:45.688Z,89.17
2017-08-01T03:13:26.220Z,89.36
2017-08-01T03:14:06.603Z,89.36
2017-08-01T03:14:47.122Z,89.65
2017-08-01T03:15:27.451Z,89.36
2017-08-01T03:16:07.902Z,89.36
2017-08-01T03:16:48.445Z,89.75
2017-08-01T03:17:28.808Z,90.03
2017-08-01T03:18:09.172Z,89.84
2017-08-01T03:18:49.603Z,90.13
2017-08-01T03:19:30.057Z,89.46
2017-08-01T03:20:10.504Z,89.65
2017-08-01T03:20:50.890Z,89.94
2017-08-01T03:21:31.334Z,89.84
2017-08-01T03:22:11.705Z,89.75
2017-08-01T03:22:52.191Z,89.65
2017-08-01T03:23:32.576Z,89.75
2017-08-01T03:24:13.030Z,90.52
2017-08-01T03:24:53.411Z,90.9
2017-08-01T03:25:33.813Z,90.61
2017-08-01T03:30:38.889Z,89.36
2017-08-01T03:34:13.794Z,88.59
2017-08-01T03:34:58.075Z,88.79
2017-08-01T03:35:37.711Z,88.49
2017-08-01T03:36:18.037Z,88.59
2017-08-01T03:36:58.517Z,88.98
2017-08-01T03:37:38.916Z,88.98
2017-08-01T03:38:19.377Z,88.88
2017-08-01T03:38:59.862Z,88.98
2017-08-01T03:39:40.198Z,89.07
2017-08-01T03:40:20.592Z,89.55
2017-08-01T03:41:01.047Z,89.65
2017-08-01T03:41:41.391Z,89.36
2017-08-01T03:42:21.788Z,89.65
2017-08-01T03:43:02.195Z,89.07
2017-08-01T03:43:42.598Z,89.75
2017-08-01T03:44:23.101Z,89.46
2017-08-01T03:45:03.880Z,89.75
2017-08-01T03:45:44.500Z,89.36
2017-08-01T03:46:24.643Z,89.94
2017-08-01T03:47:05.045Z,89.36
2017-08-01T03:47:45.535Z,90.03
2017-08-01T03:48:25.952Z,90.32
2017-08-01T03:49:06.369Z,90.32
2017-08-01T03:49:46.704Z,90.22
2017-08-01T03:50:27.186Z,91.09
2017-08-01T03:51:07.615Z,90.9
2017-08-01T03:51:48.054Z,90.22
2017-08-01T03:52:28.713Z,90.61
2017-08-01T03:53:09.077Z,90.99
2017-08-01T03:53:49.436Z,90.99
2017-08-01T03:54:29.988Z,91.09
2017-08-01T04:11:32.091Z,92.96
2017-08-01T04:12:12.537Z,93.01
2017-08-01T04:12:52.959Z,91.66
2017-08-01T04:13:33.416Z,92.43
2017-08-01T04:14:13.814Z,91.96
2017-08-01T04:14:54.210Z,91.47
2017-08-01T04:15:34.618Z,91.57
2017-08-01T04:16:15.024Z,90.8
2017-08-01T04:16:55.503Z,90.8
2017-08-01T04:17:35.903Z,91.28
2017-08-01T04:18:16.309Z,90.9
2017-08-01T04:18:57.065Z,90.56
2017-08-01T04:19:37.408Z,90.37
2017-08-01T04:20:17.867Z,90.27
2017-08-01T04:20:58.194Z,89.98
2017-08-01T04:21:38.631Z,90.17
2017-08-01T04:22:19.070Z,89.26
2017-08-01T04:22:59.449Z,89.6
2017-08-01T04:23:39.886Z,89.4
2017-08-01T04:24:20.273Z,89.6
2017-08-01T04:25:00.834Z,89.69
2017-08-01T04:25:41.244Z,89.69
2017-08-01T04:26:21.796Z,89.4
2017-08-01T04:27:02.122Z,89.6
2017-08-01T04:27:42.471Z,89.5
2017-08-01T04:28:22.829Z,89.89
2017-08-01T04:29:03.265Z,89.4
2017-08-01T04:29:43.763Z,89.79
2017-08-01T04:30:24.182Z,90.27
2017-08-01T04:31:04.463Z,89.89
2017-08-01T04:31:45.054Z,89.12
2017-08-01T04:32:25.425Z,88.83
2017-08-01T04:33:05.863Z,88.54
2017-08-01T04:33:46.255Z,88.54
2017-08-01T04:34:26.648Z,88.25
2017-08-01T04:35:07.103Z,88.25
2017-08-01T04:35:47.691Z,88.45
2017-08-01T04:36:28.038Z,88.54
2017-08-01T04:37:08.475Z,88.73
2017-08-01T04:37:48.942Z,89.12
2017-08-01T04:38:29.302Z,88.54
2017-08-01T04:39:09.926Z,88.45
2017-08-01T04:39:50.557Z,88.64
2017-08-01T04:40:30.949Z,88.25
2017-08-01T04:41:11.366Z,87.87
2017-08-01T04:41:51.877Z,87.87
2017-08-01T04:42:32.317Z,87.87
2017-08-01T04:43:12.721Z,88.16
2017-08-01T04:43:53.318Z,87.72
2017-08-01T04:44:33.541Z,87.53
2017-08-01T04:45:14.376Z,87.92
2017-08-01T04:45:55.035Z,87.62
2017-08-01T04:46:35.625Z,87.43
2017-08-01T04:47:15.891Z,87.43
2017-08-01T04:47:56.253Z,88.2
2017-08-01T04:48:36.757Z,87.24
2017-08-01T04:49:17.173Z,85.99
2017-08-01T04:49:57.563Z,86.09
2017-08-01T04:50:37.962Z,86.09
2017-08-01T04:51:18.365Z,86.28
2017-08-01T04:51:58.837Z,86.38
2017-08-01T04:52:39.304Z,86.18
2017-08-01T04:53:19.741Z,86.38
2017-08-01T04:54:00.190Z,86.28
2017-08-01T04:54:40.751Z,87.05
2017-08-01T04:55:21.156Z,86.85
2017-08-01T04:56:01.465Z,87.43
2017-08-01T04:56:41.962Z,86.85
2017-08-01T04:57:22.395Z,86.18
2017-08-01T04:58:02.835Z,85.61
2017-08-01T04:58:43.456Z,85.51
2017-08-01T04:59:24.011Z,86.47
2017-08-01T05:00:04.427Z,85.8
2017-08-01T05:00:44.900Z,85.71
2017-08-01T05:01:25.178Z,85.8
2017-08-01T05:02:05.685Z,85.32
2017-08-01T05:02:46.106Z,85.75
2017-08-01T05:03:26.540Z,85.85
2017-08-01T05:04:07.545Z,86.24
2017-08-01T05:04:48.561Z,86.33
2017-08-01T05:05:28.912Z,86.24
2017-08-01T05:06:09.341Z,86.81
2017-08-01T05:06:49.712Z,86.33
2017-08-01T05:07:30.669Z,86.33
2017-08-01T05:08:11.092Z,86.05
2017-08-01T05:08:52.385Z,86.33
2017-08-01T05:09:33.363Z,85.66
2017-08-01T05:10:13.524Z,85.85
2017-08-01T05:10:54.295Z,85.28
2017-08-01T05:11:34.736Z,85.57
2017-08-01T05:12:15.585Z,86.33
2017-08-01T05:12:56.091Z,86.33
2017-08-01T05:13:37.248Z,87.01
2017-08-01T05:14:18.543Z,87.49
2017-08-01T05:14:58.819Z,87.87
2017-08-01T05:15:40.073Z,88.16
2017-08-01T05:16:20.627Z,87.96
2017-08-01T05:17:01.805Z,87.77
2017-08-01T05:17:42.184Z,87.29
2017-08-01T05:18:22.705Z,87.39
2017-08-01T05:19:03.146Z,86.81
2017-08-01T05:19:43.654Z,86.81
2017-08-01T05:20:24.235Z,86.81
2017-08-01T05:21:04.594Z,86.72
2017-08-01T05:30:36.924Z,85.32
2017-08-01T05:31:22.029Z,85.32
2017-08-01T05:32:02.096Z,85.8
2017-08-01T05:32:42.470Z,86.57
2017-08-01T05:33:22.903Z,85.89
2017-08-01T05:34:03.366Z,85.89
2017-08-01T05:34:43.744Z,85.61
2017-08-01T05:35:24.190Z,85.71
2017-08-01T05:36:04.663Z,85.89
2017-08-01T05:36:45.059Z,85.89
2017-08-01T05:37:25.496Z,85.41
2017-08-01T05:38:05.997Z,85.89
2017-08-01T05:38:46.418Z,86.09
2017-08-01T05:39:26.811Z,85.71
2017-08-01T05:40:07.247Z,85.71
2017-08-01T05:40:47.754Z,85.22
2017-08-01T05:41:28.121Z,85.61
2017-08-01T05:43:26.899Z,85.61
2017-08-01T05:44:07.548Z,84.94
2017-08-01T05:44:47.979Z,84.55
2017-08-01T05:45:28.450Z,84.94
2017-08-01T05:46:08.874Z,84.36
2017-08-01T05:46:49.316Z,84.59
2017-08-01T05:47:29.731Z,84.59
2017-08-01T05:48:10.293Z,85.17
2017-08-01T05:48:50.734Z,85.22
2017-08-01T05:49:31.107Z,84.74
2017-08-01T05:50:11.578Z,84.74
2017-08-01T05:50:52.001Z,84.55
2017-08-01T05:51:32.512Z,84.98
2017-08-01T05:52:12.936Z,85.27
2017-08-01T05:52:53.345Z,85.84
2017-08-01T05:53:33.791Z,85.27
2017-08-01T05:54:14.459Z,85.55
2017-08-01T05:54:54.793Z,84.78
2017-08-01T05:55:35.422Z,84.11
2017-08-01T05:56:15.717Z,83.44
2017-08-01T05:56:56.112Z,83.73
2017-08-01T05:57:36.611Z,83.25
2017-08-01T05:58:17.028Z,83
2017-08-01T05:58:57.435Z,83
2017-08-01T05:59:37.923Z,82.71
2017-08-01T06:00:18.351Z,82.71
2017-08-01T06:00:58.722Z,82.9
2017-08-01T06:01:39.192Z,82.23
2017-08-01T06:02:19.510Z,82.42
2017-08-01T06:02:59.963Z,81.17
2017-08-01T06:03:40.611Z,80.02
2017-08-01T06:04:21.010Z,80.5
2017-08-01T06:05:01.481Z,80.98
2017-08-01T06:05:41.913Z,81.17
2017-08-01T06:06:22.380Z,80.4
2017-08-01T06:07:02.880Z,80.44
2017-08-01T06:07:43.230Z,80.15
2017-08-01T06:08:23.673Z,79.86
2017-08-01T06:09:04.131Z,79
2017-08-01T06:09:44.515Z,79.28
2017-08-01T06:10:24.954Z,79.96
2017-08-01T06:11:05.335Z,79.38
2017-08-01T06:11:45.771Z,79.38
2017-08-01T06:12:26.217Z,79.15
2017-08-01T06:13:06.628Z,79.82
2017-08-01T06:13:47.154Z,80.5
2017-08-01T06:14:27.555Z,80.98
2017-08-01T06:15:08.052Z,81.07
2017-08-01T06:15:48.557Z,82.04
2017-08-01T06:18:02.929Z,83.19
2017-08-01T06:18:43.251Z,83.86
2017-08-01T06:19:23.823Z,83.34
2017-08-01T06:20:04.238Z,83.92
2017-08-01T06:20:44.745Z,83.83
2017-08-01T06:21:27.093Z,84.21
2017-08-01T06:22:07.568Z,84.3
2017-08-01T06:22:47.964Z,84.5
2017-08-01T06:23:28.318Z,84.69
2017-08-01T06:24:08.671Z,84.69
2017-08-01T06:24:49.065Z,85.27
2017-08-01T06:25:29.569Z,85.65
2017-08-01T06:26:09.970Z,85.84
2017-08-01T06:26:50.448Z,86.09
2017-08-01T06:27:30.947Z,85.94
2017-08-01T06:28:11.368Z,86.42
2017-08-01T06:28:51.673Z,86.22
2017-08-01T06:29:32.097Z,86.13
2017-08-01T06:30:12.550Z,86.32
2017-08-01T06:30:52.938Z,86.42
2017-08-01T06:31:33.379Z,84.69
2017-08-01T06:32:13.877Z,85.27
2017-08-01T06:32:54.185Z,85.46
2017-08-01T06:33:34.616Z,84.78
2017-08-01T06:34:15.034Z,84.4
2017-08-01T06:34:55.517Z,84.5
2017-08-01T06:35:35.974Z,83.53
2017-08-01T06:36:16.366Z,83.86
2017-08-01T06:36:57.047Z,83.67
2017-08-01T06:37:37.448Z,83.19
2017-08-01T06:38:17.911Z,83.29
2017-08-01T06:38:58.432Z,82.81
2017-08-01T06:39:38.807Z,82.08
2017-08-01T06:40:19.228Z,81.3
2017-08-01T06:40:59.669Z,81.5
2017-08-01T06:41:40.209Z,80.68
2017-08-01T06:42:20.703Z,80.29
2017-08-01T06:43:01.141Z,79.43
2017-08-01T06:43:41.726Z,78.69
2017-08-01T06:44:22.102Z,78.79
2017-08-01T06:45:02.481Z,78.79
2017-08-01T06:45:42.993Z,78.31
2017-08-01T06:46:23.414Z,78.79
2017-08-01T06:47:04.092Z,78.21
2017-08-01T06:47:46.535Z,78.02
2017-08-01T06:48:26.940Z,78.31
2017-08-01T06:49:07.398Z,78.88
2017-08-01T06:49:47.966Z,77.92
2017-08-01T06:50:28.420Z,78.08
2017-08-01T06:51:08.796Z,78.08
2017-08-01T06:51:49.365Z,78.46
2017-08-01T06:52:30.517Z,79.9
2017-08-01T06:53:10.771Z,80.15
2017-08-01T06:53:51.175Z,80.54
2017-08-01T06:56:47.799Z,80.06
2017-08-01T06:57:30.249Z,80.25
2017-08-01T06:58:10.849Z,79.38
2017-08-01T06:58:51.506Z,79.86
2017-08-01T06:59:32.156Z,79.33
2017-08-01T07:00:13.451Z,80.1
2017-08-01T07:00:53.872Z,79.43
2017-08-01T07:01:34.502Z,79.61
2017-08-01T07:02:14.977Z,79.13
2017-08-01T07:02:55.964Z,78.75
2017-08-01T07:03:36.264Z,78.4
2017-08-01T07:04:17.466Z,76.96
2017-08-01T07:04:57.827Z,76.38
2017-08-01T07:05:38.354Z,76.9
2017-08-01T07:06:19.950Z,75.93
2017-08-01T07:07:00.562Z,76.13
2017-08-01T07:07:41.044Z,76.03
2017-08-01T07:08:21.506Z,75.93
2017-08-01T07:09:03.051Z,75.07
2017-08-01T07:09:43.485Z,73.72
2017-08-01T07:10:24.378Z,73.33
2017-08-01T07:11:04.768Z,72.89
2017-08-01T07:11:45.465Z,73.08
2017-08-01T07:25:14.632Z,71.09
2017-08-01T07:26:02.054Z,69.84
2017-08-01T07:26:42.623Z,70.42
2017-08-01T07:27:23.027Z,70.03
2017-08-01T07:28:03.523Z,70.22
2017-08-01T07:31:42.850Z,70.22
2017-08-01T07:32:58.133Z,70.03
2017-08-01T07:34:00.557Z,71.15
2017-08-01T07:37:50.040Z,71.54
2017-08-01T07:38:30.770Z,71.34
2017-08-01T07:39:11.229Z,72.5
2017-08-01T07:39:51.763Z,71.73
2017-08-01T07:40:32.104Z,71.44
2017-08-01T07:41:12.523Z,72.5
2017-08-01T07:41:53.268Z,72.21
2017-08-01T07:42:33.583Z,71.83
2017-08-01T07:43:13.967Z,71.83
2017-08-01T07:43:54.778Z,72.41
2017-08-01T07:44:35.264Z,72.31
2017-08-01T07:45:15.673Z,72.69
2017-08-01T07:45:56.505Z,72.31
2017-08-01T07:46:36.913Z,72.41
2017-08-01T07:47:17.781Z,72.69
2017-08-01T07:47:58.192Z,71.92
2017-08-01T07:48:38.520Z,71.83
2017-08-01T07:49:18.986Z,71.64
2017-08-01T07:51:38.954Z,72.79
2017-08-01T07:52:19.787Z,73.47
2017-08-01T07:53:00.259Z,73.66
2017-08-01T07:53:40.999Z,73.57
2017-08-01T07:55:29.044Z,73.47
2017-08-01T07:56:09.684Z,73.75
2017-08-01T07:56:50.134Z,73.37
2017-08-01T07:57:30.540Z,74.05
2017-08-01T07:58:11.029Z,74.14
2017-08-01T07:58:51.470Z,74.05
2017-08-01T07:59:32.037Z,75.01
2017-08-01T08:00:12.601Z,75.84
2017-08-01T08:00:53.704Z,75.74
2017-08-01T08:01:34.310Z,76.23
2017-08-01T08:02:16.276Z,77.76
2017-08-01T08:02:56.844Z,78.44
2017-08-01T08:03:37.378Z,79.08
2017-08-01T08:05:38.292Z,79.66
2017-08-01T08:07:52.100Z,82.12
2017-08-01T08:08:47.342Z,81.83
2017-08-01T08:09:44.021Z,82.41
2017-08-01T08:10:42.646Z,81.83
2017-08-01T08:11:42.361Z,82.12
2017-08-01T08:12:48.010Z,82.94
2017-08-01T08:14:04.875Z,82.85
2017-08-01T08:15:10.749Z,83.14
2017-08-01T08:16:16.969Z,83.96
2017-08-01T08:18:22.497Z,86.46
2017-08-01T08:19:02.725Z,86.27
2017-08-01T08:19:43.165Z,85.5
2017-08-01T08:20:24.637Z,84.83
2017-08-01T08:21:26.517Z,84.83
2017-08-01T08:22:08.367Z,84.25
2017-08-01T08:22:50.240Z,84.63
2017-08-01T08:23:30.726Z,86.46
2017-08-01T08:24:11.237Z,87.13
2017-08-01T08:24:51.760Z,86.46
2017-08-01T08:25:32.215Z,87.52
2017-08-01T08:26:13.561Z,88.19
2017-08-01T08:26:54.057Z,88.63
2017-08-01T08:27:34.422Z,88.73
2017-08-01T08:28:15.070Z,88.82
2017-08-01T08:28:55.560Z,89.5
2017-08-01T08:29:35.976Z,89.5
2017-08-01T08:30:16.482Z,89.54
2017-08-01T08:30:57.199Z,89.5
2017-08-01T08:31:37.383Z,90.22
2017-08-01T08:32:17.805Z,90.36
2017-08-01T08:32:58.248Z,90.36
2017-08-01T08:33:38.723Z,90.36
2017-08-01T08:34:19.114Z,90.31
2017-08-01T08:34:59.637Z,90.26
2017-08-01T08:35:40.026Z,91.32
2017-08-01T08:36:20.406Z,91.03
2017-08-01T08:37:00.794Z,91.13
2017-08-01T08:37:41.401Z,92.19
2017-08-01T08:38:22.025Z,91.61
2017-08-01T08:39:02.680Z,92.38
2017-08-01T08:39:43.116Z,92.38
2017-08-01T08:40:23.669Z,92.86
2017-08-01T08:41:04.104Z,92.38
2017-08-01T08:41:44.539Z,92.81
2017-08-01T08:42:24.956Z,93
2017-08-01T08:43:05.446Z,92.23
2017-08-01T08:43:45.879Z,92.13
2017-08-01T08:44:26.223Z,92.08
2017-08-01T08:45:06.723Z,91.7
2017-08-01T08:45:47.120Z,90.35
2017-08-01T08:46:27.583Z,90.26
2017-08-01T08:47:07.991Z,88.53
2017-08-01T08:47:48.470Z,88.43
2017-08-01T08:48:29.044Z,88.67
2017-08-01T08:49:09.557Z,88.57
2017-08-01T08:49:50.021Z,87.8
2017-08-01T08:50:30.684Z,88.18
2017-08-01T08:51:11.262Z,88.09
2017-08-01T08:51:51.706Z,87.6
2017-08-01T08:52:32.150Z,86.59
2017-08-01T08:53:12.674Z,86.07
2017-08-01T08:53:54.784Z,85.68
2017-08-01T08:54:35.247Z,83.85
2017-08-01T08:55:15.958Z,83.95
2017-08-01T08:55:56.445Z,84.05
2017-08-01T08:56:36.830Z,82.21
2017-08-01T08:57:17.372Z,82.7
2017-08-01T08:57:57.783Z,84
2017-08-01T08:58:38.239Z,83.81
2017-08-01T08:59:18.863Z,83.81
2017-08-01T08:59:59.402Z,84.14
2017-08-01T09:00:39.910Z,84.62
2017-08-01T09:01:20.256Z,83.28
2017-08-01T09:02:01.321Z,81.93
2017-08-01T09:02:43.745Z,82.45
2017-08-01T09:03:23.441Z,82.45
2017-08-01T09:04:04.338Z,80.37
2017-08-01T09:04:44.877Z,80.18
2017-08-01T09:05:25.277Z,79.06
2017-08-01T09:06:05.759Z,78.77
2017-08-01T09:06:46.230Z,77.42
2017-08-01T09:07:26.720Z,77.03
2017-08-01T09:08:07.051Z,78.38
2017-08-01T09:08:47.419Z,79.06
2017-08-01T09:09:28.105Z,78.96
2017-08-01T09:10:08.530Z,79.6
2017-08-01T09:10:49.778Z,80.46
2017-08-01T09:11:30.179Z,80.94
2017-08-01T09:12:10.643Z,81.24
2017-08-01T09:12:51.387Z,79.89
2017-08-01T09:13:31.989Z,79.41
2017-08-01T09:14:12.529Z,79.98
2017-08-01T09:14:52.950Z,80.08
2017-08-01T09:15:33.642Z,82.1
2017-08-01T09:16:15.167Z,81.24
2017-08-01T09:16:55.745Z,79.41
2017-08-01T09:17:35.954Z,78.67
2017-08-01T09:18:16.425Z,79.74
2017-08-01T09:18:57.014Z,79.35
2017-08-01T09:19:37.463Z,77.55
2017-08-01T09:20:17.946Z,76.43
2017-08-01T09:20:58.455Z,75.95
2017-08-01T09:21:38.961Z,75.47
2017-08-01T09:22:19.422Z,74.54
2017-08-01T09:22:59.960Z,73.58
2017-08-01T09:23:40.301Z,72.13
2017-08-01T09:24:21.065Z,70.62
2017-08-01T09:25:01.292Z,69.56
2017-08-01T09:25:41.649Z,68.72
2017-08-01T09:26:22.312Z,67.56
2017-08-01T09:27:02.721Z,69.59
2017-08-01T09:27:43.390Z,69.82
2017-08-01T09:28:23.907Z,68.37
2017-08-01T09:29:04.319Z,67.85
2017-08-01T09:29:44.748Z,66.4
2017-08-01T09:30:25.290Z,64.01
2017-08-01T09:31:05.720Z,63.72
2017-08-01T09:31:46.288Z,63.85
2017-08-01T09:32:26.569Z,63.07
2017-08-01T09:33:07.085Z,62.04
2017-08-01T09:33:47.545Z,62.13
2017-08-01T09:34:27.979Z,60.81
2017-08-01T09:35:08.491Z,60.52
2017-08-01T09:35:48.874Z,60.16
2017-08-01T09:36:29.355Z,59.19
2017-08-01T09:37:09.781Z,57.86
2017-08-01T09:37:50.267Z,58.54
2017-08-01T09:38:30.613Z,57.67
2017-08-01T09:39:11.007Z,56.79
2017-08-01T09:39:51.566Z,57.08
2017-08-01T09:40:32.023Z,56.3
2017-08-01T09:41:12.377Z,56.5
2017-08-01T09:41:52.858Z,56.52
2017-08-01T09:42:33.550Z,54.8
2017-08-01T09:43:13.874Z,55.19
2017-08-01T09:43:54.292Z,55.03
2017-08-01T09:44:34.753Z,53.18
2017-08-01T09:45:15.252Z,53.69
2017-08-01T09:45:55.807Z,51.97
2017-08-01T09:46:36.171Z,49.68
2017-08-01T09:47:16.586Z,47.07
2017-08-01T09:47:56.989Z,46.24
2017-08-01T09:48:37.761Z,44.12
2017-08-01T09:49:18.158Z,43.36
2017-08-01T09:49:58.532Z,42.3
2017-08-01T09:50:38.965Z,42.48
2017-08-01T09:51:19.368Z,42.68
2017-08-01T09:51:59.805Z,42.09
2017-08-01T09:52:40.245Z,41.99
2017-08-01T09:53:20.635Z,40.84
2017-08-01T09:54:01.036Z,41.13
2017-08-01T09:54:41.439Z,42.38
2017-08-01T09:55:21.936Z,40.92
2017-08-01T09:56:02.381Z,41.87
2017-08-01T09:56:42.712Z,43.61
2017-08-01T09:57:23.131Z,42.9
2017-08-01T09:58:03.593Z,43.49